createdAt,value
2018-05-08T00:00:43.841Z,72.72
2018-05-08T00:01:44.012Z,72.72
2018-05-08T00:02:44.188Z,73.07
2018-05-08T00:03:44.370Z,72.78
2018-05-08T00:05:44.723Z,73.16
2018-05-08T00:06:44.900Z,73.25
2018-05-08T00:07:45.082Z,73.44
2018-05-08T00:08:45.269Z,72.97
2018-05-08T00:09:45.447Z,73.83
2018-05-08T00:10:45.627Z,73.83
2018-05-08T00:11:45.805Z,73.63
2018-05-08T00:12:45.994Z,73.63
2018-05-08T00:13:46.167Z,73.73
2018-05-08T00:14:46.349Z,73.54
2018-05-08T00:15:46.529Z,73.44
2018-05-08T00:16:46.708Z,74.21
2018-05-08T00:17:46.887Z,73.73
2018-05-08T00:18:47.328Z,74.59
2018-05-08T00:19:47.252Z,74.40
2018-05-08T00:20:47.431Z,75.03
2018-05-08T00:21:47.612Z,74.46
2018-05-08T00:22:47.794Z,74.88
2018-05-08T00:23:47.973Z,74.88
2018-05-08T00:24:48.160Z,74.49
2018-05-08T00:25:48.334Z,74.49
2018-05-08T00:26:48.512Z,74.78
2018-05-08T00:27:48.696Z,74.69
2018-05-08T00:28:48.947Z,74.11
2018-05-08T00:29:49.061Z,73.92
2018-05-08T00:30:49.237Z,74.49
2018-05-08T00:31:49.416Z,74.02
2018-05-08T00:32:49.595Z,74.30
2018-05-08T00:33:49.779Z,74.49
2018-05-08T00:34:49.959Z,74.88
2018-05-08T00:35:50.141Z,74.74
2018-05-08T00:36:50.325Z,74.78
2018-05-08T00:37:50.507Z,74.74
2018-05-08T00:38:50.678Z,75.03
2018-05-08T00:39:50.855Z,75.32
2018-05-08T00:40:51.034Z,75.32
2018-05-08T00:41:51.212Z,75.42
2018-05-08T00:42:51.391Z,75.60
2018-05-08T00:43:51.570Z,76.46
2018-05-08T00:44:51.750Z,75.98
2018-05-08T00:45:51.927Z,76.08
2018-05-08T00:46:52.115Z,76.08
2018-05-08T00:47:52.290Z,76.18
2018-05-08T00:48:52.471Z,76.27
2018-05-08T00:49:52.655Z,76.71
2018-05-08T00:50:52.831Z,77.57
2018-05-08T00:51:53.008Z,77.00
2018-05-08T00:52:53.190Z,77.47
2018-05-08T00:53:53.374Z,77.57
2018-05-08T00:54:53.556Z,77.38
2018-05-08T00:55:53.727Z,77.38
2018-05-08T00:56:53.902Z,77.67
2018-05-08T00:57:54.081Z,77.38
2018-05-08T00:58:54.268Z,77.57
2018-05-08T00:59:54.438Z,77.86
2018-05-08T01:00:54.619Z,77.95
2018-05-08T01:01:54.799Z,78.30
2018-05-08T01:02:54.975Z,78.49
2018-05-08T01:03:55.168Z,78.77
2018-05-08T01:04:55.389Z,78.96
2018-05-08T01:05:55.526Z,79.63
2018-05-08T01:06:55.710Z,79.53
2018-05-08T01:07:55.890Z,79.35
2018-05-08T01:08:56.061Z,79.06
2018-05-08T01:09:56.248Z,78.67
2018-05-08T01:10:56.421Z,78.91
2018-05-08T01:11:56.608Z,78.23
2018-05-08T01:12:57.026Z,78.33
2018-05-08T01:13:56.966Z,78.33
2018-05-08T01:14:57.141Z,79.10
2018-05-08T01:15:57.323Z,78.86
2018-05-08T01:16:57.584Z,78.49
2018-05-08T01:17:57.680Z,79.35
2018-05-08T01:18:57.862Z,79.15
2018-05-08T01:19:58.048Z,78.86
2018-05-08T01:20:58.219Z,78.67
2018-05-08T01:21:58.404Z,78.49
2018-05-08T01:23:58.753Z,79.35
2018-05-08T01:24:58.932Z,78.96
2018-05-08T01:25:59.112Z,79.63
2018-05-08T01:26:59.289Z,79.82
2018-05-08T01:27:59.469Z,79.53
2018-05-08T01:28:59.654Z,79.53
2018-05-08T01:29:59.834Z,79.63
2018-05-08T01:31:00.014Z,78.86
2018-05-08T01:32:00.194Z,78.86
2018-05-08T01:33:00.373Z,79.25
2018-05-08T01:34:00.551Z,79.06
2018-05-08T01:35:00.728Z,78.96
2018-05-08T01:36:00.917Z,78.58
2018-05-08T01:37:01.142Z,78.58
2018-05-08T01:38:01.276Z,78.58
2018-05-08T01:39:01.450Z,78.67
2018-05-08T01:40:01.631Z,78.30
2018-05-08T01:41:01.812Z,78.77
2018-05-08T01:42:01.993Z,79.25
2018-05-08T01:43:02.171Z,79.15
2018-05-08T01:44:02.351Z,79.35
2018-05-08T01:45:02.529Z,79.63
2018-05-08T01:46:02.707Z,79.44
2018-05-08T01:47:02.886Z,79.53
2018-05-08T01:48:03.072Z,79.97
2018-05-08T01:49:03.255Z,80.83
2018-05-08T01:50:03.433Z,80.64
2018-05-08T01:51:03.609Z,80.54
2018-05-08T01:52:03.786Z,80.64
2018-05-08T01:53:03.969Z,80.83
2018-05-08T01:54:04.145Z,81.21
2018-05-08T01:55:04.319Z,80.64
2018-05-08T01:56:04.498Z,80.83
2018-05-08T01:57:04.688Z,80.92
2018-05-08T01:58:04.861Z,80.83
2018-05-08T01:59:05.039Z,80.83
2018-05-08T02:00:05.226Z,80.64
2018-05-08T02:01:05.395Z,80.64
2018-05-08T02:02:05.575Z,81.30
2018-05-08T02:03:05.755Z,80.64
2018-05-08T02:04:05.935Z,80.73
2018-05-08T02:05:06.113Z,80.39
2018-05-08T02:06:06.292Z,80.20
2018-05-08T02:07:06.475Z,79.44
2018-05-08T02:08:06.648Z,79.72
2018-05-08T02:09:06.829Z,79.63
2018-05-08T02:10:07.007Z,79.82
2018-05-08T02:11:07.185Z,79.63
2018-05-08T02:12:07.371Z,79.63
2018-05-08T02:13:07.547Z,79.82
2018-05-08T02:14:07.725Z,79.25
2018-05-08T02:15:07.900Z,79.88
2018-05-08T02:16:08.079Z,80.11
2018-05-08T02:17:08.261Z,79.72
2018-05-08T02:18:08.444Z,79.44
2018-05-08T02:19:08.626Z,79.63
2018-05-08T02:20:08.804Z,79.53
2018-05-08T02:21:08.978Z,79.72
2018-05-08T02:22:09.162Z,79.25
2018-05-08T02:23:09.338Z,79.35
2018-05-08T02:24:09.518Z,79.82
2018-05-08T02:25:09.698Z,79.63
2018-05-08T02:26:09.887Z,79.82
2018-05-08T02:27:10.057Z,79.82
2018-05-08T02:28:10.248Z,79.25
2018-05-08T02:29:10.414Z,79.72
2018-05-08T02:30:10.594Z,79.63
2018-05-08T02:31:10.773Z,79.68
2018-05-08T02:32:10.952Z,80.07
2018-05-08T02:33:11.130Z,79.40
2018-05-08T02:34:11.305Z,79.49
2018-05-08T02:35:11.482Z,79.35
2018-05-08T02:36:11.668Z,79.97
2018-05-08T02:37:11.839Z,79.53
2018-05-08T02:38:12.020Z,80.44
2018-05-08T02:39:12.195Z,80.44
2018-05-08T02:40:12.375Z,80.73
2018-05-08T02:41:12.552Z,80.64
2018-05-08T02:42:12.732Z,80.64
2018-05-08T02:43:12.914Z,80.54
2018-05-08T02:44:13.091Z,80.26
2018-05-08T02:45:13.283Z,80.35
2018-05-08T02:46:13.450Z,80.44
2018-05-08T02:47:13.630Z,80.54
2018-05-08T02:48:13.819Z,80.54
2018-05-08T02:49:13.986Z,80.83
2018-05-08T02:50:14.176Z,80.92
2018-05-08T02:51:14.604Z,80.83
2018-05-08T02:52:14.528Z,80.83
2018-05-08T02:53:14.806Z,81.12
2018-05-08T02:54:14.893Z,81.12
2018-05-08T02:55:15.074Z,81.40
2018-05-08T02:56:15.254Z,81.68
2018-05-08T02:57:15.425Z,81.84
2018-05-08T02:58:15.605Z,82.03
2018-05-08T02:59:15.784Z,81.55
2018-05-08T03:00:15.961Z,82.12
2018-05-08T03:01:16.381Z,82.50
2018-05-08T03:02:16.330Z,82.79
2018-05-08T03:03:16.497Z,82.50
2018-05-08T03:04:16.683Z,82.89
2018-05-08T03:05:16.869Z,82.41
2018-05-08T03:06:17.034Z,82.54
2018-05-08T03:08:17.389Z,81.88
2018-05-08T03:09:17.576Z,82.07
2018-05-08T03:10:17.747Z,81.97
2018-05-08T03:11:17.942Z,81.59
2018-05-08T03:12:18.104Z,81.68
2018-05-08T03:13:18.283Z,81.40
2018-05-08T03:14:18.495Z,81.30
2018-05-08T03:15:18.651Z,81.74
2018-05-08T03:16:18.821Z,81.78
2018-05-08T03:17:19.001Z,81.74
2018-05-08T03:18:19.425Z,82.03
2018-05-08T03:19:19.365Z,82.60
2018-05-08T03:20:19.544Z,82.41
2018-05-08T03:21:19.723Z,82.41
2018-05-08T03:22:19.939Z,82.79
2018-05-08T03:23:20.082Z,84.27
2018-05-08T03:24:20.264Z,84.08
2018-05-08T03:25:20.442Z,84.79
2018-05-08T03:26:20.624Z,83.98
2018-05-08T03:27:20.801Z,83.84
2018-05-08T03:28:20.985Z,83.74
2018-05-08T03:29:21.159Z,84.41
2018-05-08T03:30:21.348Z,84.22
2018-05-08T03:31:21.515Z,84.12
2018-05-08T03:32:21.693Z,82.89
2018-05-08T03:33:21.874Z,83.07
2018-05-08T03:34:22.041Z,83.26
2018-05-08T03:35:22.235Z,83.36
2018-05-08T03:36:22.400Z,82.98
2018-05-08T03:37:22.584Z,83.55
2018-05-08T03:38:23.007Z,83.45
2018-05-08T03:39:22.942Z,83.65
2018-05-08T03:40:23.122Z,83.65
2018-05-08T03:41:23.294Z,83.26
2018-05-08T03:42:23.471Z,83.55
2018-05-08T03:43:23.655Z,83.55
2018-05-08T03:44:23.836Z,83.55
2018-05-08T03:45:24.259Z,83.55
2018-05-08T03:46:24.194Z,83.32
2018-05-08T03:47:24.373Z,83.98
2018-05-08T03:48:24.576Z,83.80
2018-05-08T03:49:24.719Z,84.03
2018-05-08T03:50:24.900Z,83.26
2018-05-08T03:51:25.079Z,83.65
2018-05-08T03:52:25.257Z,83.55
2018-05-08T03:53:25.435Z,83.17
2018-05-08T03:54:25.615Z,82.79
2018-05-08T03:55:25.794Z,82.79
2018-05-08T03:56:25.980Z,82.60
2018-05-08T03:57:26.234Z,82.69
2018-05-08T03:58:26.336Z,82.31
2018-05-08T03:59:26.509Z,82.41
2018-05-08T04:00:26.687Z,82.41
2018-05-08T04:01:26.864Z,82.12
2018-05-08T04:02:27.051Z,82.60
2018-05-08T04:03:27.224Z,82.60
2018-05-08T04:04:27.412Z,82.12
2018-05-08T04:05:27.583Z,82.60
2018-05-08T04:06:27.758Z,81.84
2018-05-08T04:07:27.932Z,82.12
2018-05-08T04:08:28.188Z,82.60
2018-05-08T04:09:28.289Z,82.79
2018-05-08T04:10:28.472Z,82.79
2018-05-08T04:11:28.657Z,82.89
2018-05-08T04:12:28.825Z,82.60
2018-05-08T04:13:29.009Z,82.79
2018-05-08T04:14:29.187Z,82.69
2018-05-08T04:15:29.393Z,83.36
2018-05-08T04:16:29.542Z,83.41
2018-05-08T04:17:29.718Z,83.07
2018-05-08T04:18:29.906Z,83.26
2018-05-08T04:19:30.081Z,82.69
2018-05-08T04:20:30.257Z,82.31
2018-05-08T04:21:30.446Z,81.78
2018-05-08T04:22:30.871Z,81.12
2018-05-08T04:23:30.806Z,79.06
2018-05-08T04:24:30.984Z,76.56
2018-05-08T04:25:31.162Z,74.30
2018-05-08T04:26:31.341Z,72.05
2018-05-08T04:27:31.523Z,69.41
2018-05-08T04:28:31.700Z,67.53
2018-05-08T04:29:31.886Z,65.84
2018-05-08T04:30:32.063Z,64.34
2018-05-08T04:31:32.255Z,62.62
2018-05-08T04:32:32.431Z,62.14
2018-05-08T04:33:32.619Z,62.52
2018-05-08T04:34:32.793Z,61.94
2018-05-08T04:35:32.973Z,62.26
2018-05-08T04:36:33.187Z,61.11
2018-05-08T04:37:33.327Z,61.21
2018-05-08T04:38:33.515Z,61.18
2018-05-08T04:39:33.703Z,61.76
2018-05-08T04:40:33.885Z,64.12
2018-05-08T04:41:34.072Z,63.83
2018-05-08T04:42:34.250Z,62.87
2018-05-08T04:43:34.447Z,63.54
2018-05-08T04:44:34.625Z,63.39
2018-05-08T04:45:34.799Z,63.67
2018-05-08T04:46:34.986Z,63.64
2018-05-08T04:47:35.172Z,64.02
2018-05-08T04:48:35.356Z,63.76
2018-05-08T04:49:35.550Z,62.65
2018-05-08T04:50:35.732Z,62.74
2018-05-08T04:51:35.917Z,62.26
2018-05-08T04:52:36.100Z,60.83
2018-05-08T04:53:36.286Z,60.19
2018-05-08T04:54:36.474Z,59.42
2018-05-08T04:55:36.653Z,58.78
2018-05-08T04:56:36.856Z,58.14
2018-05-08T04:57:37.032Z,57.08
2018-05-08T04:58:37.220Z,56.34
2018-05-08T04:59:37.411Z,54.74
2018-05-08T05:00:37.597Z,54.06
2018-05-08T05:01:37.783Z,54.00
2018-05-08T05:02:38.031Z,53.03
2018-05-08T05:03:38.159Z,53.20
2018-05-08T05:04:38.343Z,53.11
2018-05-08T05:05:38.542Z,54.35
2018-05-08T05:06:38.725Z,54.16
2018-05-08T05:07:38.914Z,53.49
2018-05-08T05:08:39.099Z,53.78
2018-05-08T05:09:39.288Z,53.23
2018-05-08T05:10:39.473Z,53.32
2018-05-08T05:11:39.665Z,52.20
2018-05-08T05:12:39.853Z,51.45
2018-05-08T05:13:40.043Z,50.97
2018-05-08T05:14:40.240Z,50.49
2018-05-08T05:15:40.424Z,50.68
2018-05-08T05:16:40.709Z,50.97
2018-05-08T05:18:40.991Z,50.10
2018-05-08T05:19:41.174Z,50.78
2018-05-08T05:20:41.365Z,50.30
2018-05-08T05:21:41.556Z,49.82
2018-05-08T05:22:41.746Z,50.20
2018-05-08T05:23:41.939Z,50.66
2018-05-08T05:24:42.134Z,51.43
2018-05-08T05:25:42.296Z,50.87
2018-05-08T05:26:42.488Z,50.23
2018-05-08T05:27:42.684Z,49.27
2018-05-08T05:28:42.870Z,49.19
2018-05-08T05:29:43.059Z,48.52
2018-05-08T05:30:43.252Z,48.23
2018-05-08T05:31:43.499Z,48.16
2018-05-08T05:32:43.633Z,47.77
2018-05-08T05:33:43.824Z,48.33
2018-05-08T05:34:44.013Z,47.67
2018-05-08T05:35:44.211Z,47.46
2018-05-08T05:36:44.395Z,47.87
2018-05-08T05:37:44.598Z,47.00
2018-05-08T05:38:44.792Z,48.03
2018-05-08T05:39:44.983Z,47.97
2018-05-08T05:40:45.171Z,48.06
2018-05-08T05:41:45.363Z,47.12
2018-05-08T05:42:45.561Z,47.03
2018-05-08T05:43:45.749Z,46.73
2018-05-08T05:44:45.942Z,47.10
2018-05-08T05:45:46.130Z,46.73
2018-05-08T05:46:46.322Z,45.99
2018-05-08T05:47:46.515Z,45.24
2018-05-08T05:48:46.711Z,44.93
2018-05-08T05:49:46.907Z,46.08
2018-05-08T05:50:47.094Z,44.85
2018-05-08T05:51:47.292Z,45.03
2018-05-08T05:52:47.477Z,45.24
2018-05-08T05:53:47.665Z,44.49
2018-05-08T05:54:47.862Z,44.46
2018-05-08T05:55:48.049Z,44.18
2018-05-08T05:56:48.243Z,44.83
2018-05-08T05:57:48.431Z,46.18
2018-05-08T05:58:48.631Z,45.70
2018-05-08T06:00:49.008Z,45.43
2018-05-08T06:01:49.207Z,45.51
2018-05-08T06:02:49.378Z,45.24
2018-05-08T06:03:51.573Z,44.39
2018-05-08T06:04:49.763Z,42.89
2018-05-08T06:05:49.956Z,41.73
2018-05-08T06:06:50.158Z,42.58
2018-05-08T06:07:50.334Z,42.19
2018-05-08T06:08:50.528Z,42.02
2018-05-08T06:09:50.719Z,42.02
2018-05-08T06:10:51.236Z,41.85
2018-05-08T06:11:51.189Z,40.92
2018-05-08T06:12:51.301Z,40.71
2018-05-08T06:13:51.492Z,40.90
2018-05-08T06:14:51.681Z,41.09
2018-05-08T06:15:51.874Z,40.44
2018-05-08T06:16:52.081Z,39.88
2018-05-08T06:17:52.263Z,40.61
2018-05-08T06:18:52.455Z,40.71
2018-05-08T06:19:52.640Z,41.36
2018-05-08T06:21:53.015Z,41.75
2018-05-08T06:22:53.207Z,41.58
2018-05-08T06:23:53.408Z,40.83
2018-05-08T06:24:53.595Z,40.15
2018-05-08T06:25:53.782Z,40.15
2018-05-08T06:26:53.979Z,40.36
2018-05-08T06:27:54.168Z,40.05
2018-05-08T06:28:54.363Z,40.17
2018-05-08T06:29:54.549Z,39.88
2018-05-08T06:30:54.741Z,39.88
2018-05-08T06:31:54.935Z,38.76
2018-05-08T06:32:55.130Z,37.69
2018-05-08T06:33:55.325Z,37.34
2018-05-08T06:34:55.507Z,37.71
2018-05-08T06:35:55.715Z,36.76
2018-05-08T06:36:55.898Z,37.51
2018-05-08T06:37:56.093Z,36.56
2018-05-08T06:38:56.397Z,36.10
2018-05-08T06:39:56.547Z,35.61
2018-05-08T06:40:56.669Z,35.61
2018-05-08T06:41:56.855Z,36.36
2018-05-08T06:42:57.048Z,36.27
2018-05-08T06:43:57.239Z,36.54
2018-05-08T06:44:57.439Z,36.91
2018-05-08T06:45:57.626Z,38.81
2018-05-08T06:46:57.828Z,38.64
2018-05-08T06:47:58.026Z,38.66
2018-05-08T06:48:58.216Z,37.32
2018-05-08T06:49:58.411Z,38.81
2018-05-08T06:50:58.605Z,38.54
2018-05-08T06:51:58.786Z,37.32
2018-05-08T06:52:58.997Z,36.48
2018-05-08T06:53:59.177Z,35.64
2018-05-08T06:54:59.411Z,34.58
2018-05-08T06:55:59.557Z,34.56
2018-05-08T06:56:59.745Z,34.95
2018-05-08T06:57:59.936Z,34.85
2018-05-08T06:59:00.140Z,34.66
2018-05-08T07:00:00.323Z,33.72
2018-05-08T07:01:00.518Z,33.62
2018-05-08T07:02:00.711Z,32.96
2018-05-08T07:03:00.906Z,32.29
2018-05-08T07:04:01.102Z,32.40
2018-05-08T07:05:01.293Z,31.74
2018-05-08T07:06:01.482Z,31.45
2018-05-08T07:07:01.680Z,31.90
2018-05-08T07:08:01.868Z,33.44
2018-05-08T07:09:02.084Z,35.06
2018-05-08T07:10:02.265Z,33.81
2018-05-08T07:11:02.458Z,33.34
2018-05-08T07:12:02.624Z,32.96
2018-05-08T07:13:02.817Z,32.31
2018-05-08T07:14:03.016Z,31.34
2018-05-08T07:15:03.205Z,32.10
2018-05-08T07:16:03.628Z,32.97
2018-05-08T07:17:03.595Z,32.29
2018-05-08T07:18:03.801Z,33.15
2018-05-08T07:19:03.992Z,32.02
2018-05-08T07:20:04.186Z,30.96
2018-05-08T07:21:04.384Z,30.67
2018-05-08T07:22:04.583Z,30.39
2018-05-08T07:23:04.762Z,30.67
2018-05-08T07:24:05.002Z,30.57
2018-05-08T07:25:05.158Z,30.28
2018-05-08T07:26:05.351Z,31.32
2018-05-08T07:27:05.547Z,31.88
2018-05-08T07:28:05.738Z,31.79
2018-05-08T07:29:05.942Z,31.77
2018-05-08T07:30:06.260Z,31.70
2018-05-08T07:31:06.385Z,31.32
2018-05-08T07:32:06.537Z,30.28
2018-05-08T07:33:06.711Z,29.61
2018-05-08T07:34:06.899Z,29.32
2018-05-08T07:35:07.091Z,29.89
2018-05-08T07:36:07.293Z,30.08
2018-05-08T07:37:07.478Z,29.91
2018-05-08T07:38:07.704Z,29.99
2018-05-08T07:39:07.869Z,30.67
2018-05-08T07:40:08.061Z,29.60
2018-05-08T07:41:08.262Z,30.25
2018-05-08T07:42:08.441Z,31.88
2018-05-08T07:43:08.643Z,31.41
2018-05-08T07:44:08.830Z,31.40
2018-05-08T07:45:09.027Z,31.79
2018-05-08T07:46:09.224Z,32.34
2018-05-08T07:47:09.416Z,33.88
2018-05-08T07:48:09.612Z,33.88
2018-05-08T07:49:09.804Z,33.51
2018-05-08T07:50:09.995Z,32.35
2018-05-08T07:51:10.192Z,31.60
2018-05-08T07:52:10.378Z,32.32
2018-05-08T07:53:10.575Z,34.16
2018-05-08T07:54:10.775Z,33.88
2018-05-08T07:55:10.960Z,33.70
2018-05-08T07:56:11.125Z,33.20
2018-05-08T07:57:11.342Z,32.84
2018-05-08T07:58:11.528Z,32.08
2018-05-08T07:59:12.812Z,31.61
2018-05-08T08:00:11.898Z,31.50
2018-05-08T08:01:12.081Z,31.38
2018-05-08T08:02:12.276Z,33.11
2018-05-08T08:03:12.477Z,33.39
2018-05-08T08:05:12.862Z,32.76
2018-05-08T08:06:13.043Z,32.05
2018-05-08T08:07:13.225Z,32.57
2018-05-08T08:08:13.545Z,31.98
2018-05-08T08:09:13.610Z,31.48
2018-05-08T08:10:13.806Z,31.87
2018-05-08T08:11:14.005Z,31.40
2018-05-08T08:12:14.247Z,30.74
2018-05-08T08:13:14.394Z,30.91
2018-05-08T08:14:14.580Z,32.04
2018-05-08T08:15:14.772Z,32.15
2018-05-08T08:16:14.963Z,31.98
2018-05-08T08:17:15.158Z,31.50
2018-05-08T08:18:15.406Z,31.21
2018-05-08T08:19:15.540Z,30.82
2018-05-08T08:20:15.728Z,30.64
2018-05-08T08:21:15.922Z,30.91
2018-05-08T08:22:16.116Z,30.74
2018-05-08T08:23:16.295Z,31.48
2018-05-08T08:24:16.489Z,30.64
2018-05-08T08:26:16.873Z,30.74
2018-05-08T08:27:17.108Z,31.51
2018-05-08T08:28:17.276Z,31.30
2018-05-08T08:29:17.461Z,32.07
2018-05-08T08:30:17.663Z,31.60
2018-05-08T08:31:17.856Z,30.74
2018-05-08T08:32:18.041Z,29.60
2018-05-08T08:33:18.242Z,28.93
2018-05-08T08:34:18.438Z,29.02
2018-05-08T08:35:18.617Z,29.13
2018-05-08T08:36:19.148Z,29.40
2018-05-08T08:37:19.005Z,29.02
2018-05-08T08:38:19.179Z,29.69
2018-05-08T08:39:19.364Z,29.89
2018-05-08T08:40:19.554Z,29.60
2018-05-08T08:41:19.745Z,30.17
2018-05-08T08:42:20.015Z,30.38
2018-05-08T08:43:20.497Z,30.28
2018-05-08T08:44:20.361Z,29.32
2018-05-08T08:45:20.546Z,29.22
2018-05-08T08:46:20.724Z,28.83
2018-05-08T08:47:20.950Z,28.43
2018-05-08T08:48:21.122Z,28.53
2018-05-08T08:49:21.320Z,30.57
2018-05-08T08:50:21.517Z,31.71
2018-05-08T08:51:21.707Z,33.02
2018-05-08T08:52:21.963Z,33.14
2018-05-08T08:53:22.096Z,31.99
2018-05-08T08:54:22.562Z,30.84
2018-05-08T08:55:22.529Z,30.27
2018-05-08T08:56:22.626Z,31.41
2018-05-08T08:57:22.913Z,31.87
2018-05-08T08:58:23.005Z,31.97
2018-05-08T08:59:23.211Z,31.42
2018-05-08T09:00:23.387Z,30.92
2018-05-08T09:01:23.559Z,30.45
2018-05-08T09:02:23.755Z,31.96
2018-05-08T09:03:23.966Z,33.41
2018-05-08T09:04:24.145Z,32.84
2018-05-08T09:05:24.338Z,31.68
2018-05-08T09:06:24.532Z,31.79
2018-05-08T09:07:24.722Z,30.94
2018-05-08T09:08:24.913Z,30.63
2018-05-08T09:09:25.109Z,31.96
2018-05-08T09:10:25.305Z,32.26
2018-05-08T09:11:25.484Z,31.89
2018-05-08T09:12:25.677Z,31.62
2018-05-08T09:13:25.874Z,32.07
2018-05-08T09:14:26.056Z,32.28
2018-05-08T09:15:26.238Z,31.31
2018-05-08T09:16:26.431Z,30.71
2018-05-08T09:17:26.581Z,32.15
2018-05-08T09:18:27.020Z,32.92
2018-05-08T09:19:26.941Z,32.71
2018-05-08T09:20:27.101Z,31.84
2018-05-08T09:21:27.284Z,32.24
2018-05-08T09:22:27.460Z,32.34
2018-05-08T09:23:27.642Z,31.96
2018-05-08T09:24:27.841Z,32.26
2018-05-08T09:25:28.009Z,31.68
2018-05-08T09:26:28.178Z,31.60
2018-05-08T09:27:28.418Z,31.87
2018-05-08T09:28:28.762Z,31.89
2018-05-08T09:29:28.687Z,30.47
2018-05-08T09:30:28.883Z,29.22
2018-05-08T09:31:29.073Z,30.26
2018-05-08T09:32:29.246Z,30.94
2018-05-08T09:33:29.426Z,30.16
2018-05-08T09:34:29.621Z,30.52
2018-05-08T09:35:29.811Z,31.97
2018-05-08T09:36:30.010Z,31.32
2018-05-08T09:37:30.189Z,30.27
2018-05-08T09:38:30.380Z,29.87
2018-05-08T09:39:30.598Z,30.08
2018-05-08T09:40:30.709Z,29.41
2018-05-08T09:41:30.885Z,29.52
2018-05-08T09:42:31.075Z,28.96
2018-05-08T09:43:31.254Z,28.96
2018-05-08T09:44:31.474Z,30.66
2018-05-08T09:45:32.444Z,32.47
2018-05-08T09:46:31.840Z,32.67
2018-05-08T09:47:32.024Z,33.28
2018-05-08T09:48:32.197Z,35.02
2018-05-08T09:49:32.393Z,34.27
2018-05-08T09:50:32.570Z,33.81
2018-05-08T09:51:32.762Z,34.86
2018-05-08T09:52:32.948Z,34.57
2018-05-08T09:53:33.136Z,34.88
2018-05-08T09:54:33.313Z,34.67
2018-05-08T09:55:33.477Z,35.05
2018-05-08T09:56:33.668Z,35.05
2018-05-08T09:57:33.857Z,33.91
2018-05-08T09:58:34.030Z,34.01
2018-05-08T09:59:34.488Z,34.09
2018-05-08T10:00:34.414Z,34.49
2018-05-08T10:01:34.587Z,33.34
2018-05-08T10:03:34.940Z,33.62
2018-05-08T10:04:35.124Z,33.25
2018-05-08T10:05:35.322Z,33.81
2018-05-08T10:06:35.612Z,33.52
2018-05-08T10:07:35.697Z,35.68
2018-05-08T10:08:35.879Z,35.68
2018-05-08T10:09:36.076Z,35.50
2018-05-08T10:10:36.255Z,35.60
2018-05-08T10:11:36.453Z,35.42
2018-05-08T10:12:36.669Z,34.84
2018-05-08T10:13:36.871Z,34.63
2018-05-08T10:14:37.077Z,36.08
2018-05-08T10:15:37.321Z,35.50
2018-05-08T10:16:37.422Z,35.21
2018-05-08T10:17:37.628Z,33.89
2018-05-08T10:18:37.817Z,33.42
2018-05-08T10:19:37.986Z,33.42
2018-05-08T10:20:38.221Z,33.14
2018-05-08T10:21:38.361Z,33.52
2018-05-08T10:22:38.541Z,34.96
2018-05-08T10:23:38.718Z,35.42
2018-05-08T10:24:38.900Z,36.28
2018-05-08T10:25:39.084Z,37.24
2018-05-08T10:26:39.274Z,37.40
2018-05-08T10:27:39.448Z,37.62
2018-05-08T10:28:39.626Z,37.23
2018-05-08T10:29:39.807Z,36.78
2018-05-08T10:30:39.992Z,36.40
2018-05-08T10:31:40.182Z,36.20
2018-05-08T10:32:40.383Z,36.51
2018-05-08T10:33:40.556Z,35.81
2018-05-08T10:34:40.744Z,35.91
2018-05-08T10:35:40.929Z,36.18
2018-05-08T10:36:41.087Z,36.84
2018-05-08T10:37:41.277Z,37.42
2018-05-08T10:38:41.441Z,37.15
2018-05-08T10:39:41.632Z,36.30
2018-05-08T10:40:41.819Z,36.20
2018-05-08T10:41:41.987Z,36.58
2018-05-08T10:42:42.252Z,36.47
2018-05-08T10:43:42.330Z,36.98
2018-05-08T10:44:42.521Z,37.05
2018-05-08T10:45:42.709Z,36.28
2018-05-08T10:46:42.887Z,35.81
2018-05-08T10:47:43.119Z,35.99
2018-05-08T10:48:43.257Z,36.20
2018-05-08T10:49:43.434Z,36.30
2018-05-08T10:50:43.622Z,36.02
2018-05-08T10:51:43.798Z,35.56
2018-05-08T10:52:43.974Z,35.44
2018-05-08T10:53:44.164Z,35.72
2018-05-08T10:54:44.361Z,35.83
2018-05-08T10:56:44.733Z,35.73
2018-05-08T10:57:44.872Z,34.84
2018-05-08T10:58:45.045Z,35.73
2018-05-08T10:59:45.218Z,35.35
2018-05-08T11:00:45.390Z,35.73
2018-05-08T11:01:45.618Z,35.64
2018-05-08T11:02:45.846Z,35.83
2018-05-08T11:03:45.985Z,35.60
2018-05-08T11:04:46.154Z,35.89
2018-05-08T11:05:46.335Z,35.62
2018-05-08T11:06:46.518Z,34.77
2018-05-08T11:07:46.691Z,33.91
2018-05-08T11:08:46.864Z,33.70
2018-05-08T11:09:47.061Z,34.39
2018-05-08T11:10:47.259Z,35.25
2018-05-08T11:11:47.422Z,35.93
2018-05-08T11:12:47.590Z,35.66
2018-05-08T11:13:47.776Z,34.99
2018-05-08T11:14:47.943Z,34.04
2018-05-08T11:15:48.122Z,33.67
2018-05-08T11:16:48.274Z,33.47
2018-05-08T11:17:48.446Z,33.29
2018-05-08T11:18:48.744Z,32.81
2018-05-08T11:19:48.908Z,32.87
2018-05-08T11:20:48.980Z,33.36
2018-05-08T11:21:49.195Z,33.64
2018-05-08T11:22:49.372Z,33.54
2018-05-08T11:23:49.541Z,33.62
2018-05-08T11:24:49.774Z,34.77
2018-05-08T11:25:49.920Z,34.97
2018-05-08T11:26:50.253Z,34.39
2018-05-08T11:27:50.297Z,33.73
2018-05-08T11:28:50.447Z,33.44
2018-05-08T11:29:50.634Z,33.73
2018-05-08T11:30:50.813Z,33.56
2018-05-08T11:31:51.002Z,33.34
2018-05-08T11:32:51.201Z,33.81
2018-05-08T11:33:51.340Z,35.05
2018-05-08T11:34:51.539Z,34.97
2018-05-08T11:35:51.742Z,34.97
2018-05-08T11:36:51.916Z,33.91
2018-05-08T11:37:52.067Z,35.15
2018-05-08T11:38:52.255Z,35.33
2018-05-08T11:39:52.435Z,35.54
2018-05-08T11:40:52.620Z,35.15
2018-05-08T11:41:52.873Z,35.91
2018-05-08T11:42:52.961Z,35.93
2018-05-08T11:43:53.150Z,36.58
2018-05-08T11:44:53.325Z,36.41
2018-05-08T11:45:53.511Z,36.30
2018-05-08T11:46:53.691Z,36.10
2018-05-08T11:47:53.861Z,36.12
2018-05-08T11:48:54.066Z,36.30
2018-05-08T11:49:54.248Z,36.10
2018-05-08T11:50:54.394Z,36.28
2018-05-08T11:52:54.744Z,36.57
2018-05-08T11:53:54.928Z,35.91
2018-05-08T11:54:55.114Z,35.54
2018-05-08T11:55:55.291Z,35.91
2018-05-08T11:56:55.478Z,35.42
2018-05-08T11:57:55.671Z,35.54
2018-05-08T11:58:55.831Z,34.96
2018-05-08T11:59:55.999Z,34.59
2018-05-08T12:00:56.285Z,33.75
2018-05-08T12:01:56.387Z,33.36
2018-05-08T12:02:56.556Z,32.89
2018-05-08T12:03:56.737Z,32.89
2018-05-08T12:04:56.896Z,32.50
2018-05-08T12:05:57.085Z,32.20
2018-05-08T12:06:57.273Z,32.87
2018-05-08T12:07:57.453Z,32.97
2018-05-08T12:08:57.639Z,33.72
2018-05-08T12:09:57.807Z,35.70
2018-05-08T12:10:57.998Z,35.62
2018-05-08T12:11:58.171Z,35.54
2018-05-08T12:12:58.365Z,35.64
2018-05-08T12:13:58.550Z,35.62
2018-05-08T12:14:58.737Z,35.54
2018-05-08T12:15:59.189Z,34.45
2018-05-08T12:16:59.079Z,34.67
2018-05-08T12:17:59.253Z,34.77
2018-05-08T12:18:59.452Z,35.04
2018-05-08T12:19:59.612Z,34.77
2018-05-08T12:20:59.815Z,34.38
2018-05-08T12:21:59.993Z,34.28
2018-05-08T12:23:00.177Z,34.39
2018-05-08T12:24:00.373Z,34.39
2018-05-08T12:25:00.552Z,33.81
2018-05-08T12:27:00.927Z,35.73
2018-05-08T12:28:01.103Z,35.25
2018-05-08T12:29:01.280Z,34.96
2018-05-08T12:30:01.444Z,34.49
2018-05-08T12:31:01.641Z,34.47
2018-05-08T12:32:01.893Z,33.99
2018-05-08T12:34:02.159Z,33.52
2018-05-08T12:35:02.359Z,33.72
2018-05-08T12:36:02.513Z,33.04
2018-05-08T12:37:02.702Z,33.14
2018-05-08T12:38:02.882Z,33.06
2018-05-08T12:39:03.052Z,33.15
2018-05-08T12:40:03.231Z,32.96
2018-05-08T12:41:03.410Z,32.68
2018-05-08T12:42:03.638Z,32.29
2018-05-08T12:43:03.779Z,32.12
2018-05-08T12:44:03.968Z,32.31
2018-05-08T12:45:04.176Z,31.92
2018-05-08T12:46:04.357Z,31.92
2018-05-08T12:47:04.529Z,32.64
2018-05-08T12:48:04.710Z,33.04
2018-05-08T12:49:04.876Z,33.04
2018-05-08T12:50:05.398Z,33.14
2018-05-08T12:51:05.283Z,33.15
2018-05-08T12:52:05.443Z,32.20
2018-05-08T12:53:05.638Z,31.62
2018-05-08T12:54:05.848Z,31.71
2018-05-08T12:55:06.045Z,31.62
2018-05-08T12:56:06.211Z,31.53
2018-05-08T12:57:06.385Z,31.15
2018-05-08T12:58:06.563Z,30.85
2018-05-08T12:59:06.753Z,30.73
2018-05-08T13:00:06.994Z,30.92
2018-05-08T13:01:07.118Z,30.82
2018-05-08T13:02:07.299Z,30.44
2018-05-08T13:03:07.487Z,30.54
2018-05-08T13:04:07.665Z,30.63
2018-05-08T13:05:07.833Z,30.15
2018-05-08T13:06:08.006Z,30.16
2018-05-08T13:07:08.197Z,29.97
2018-05-08T13:08:08.366Z,29.48